Hauptseite
METAR-TAF:

METAR-TAF

Flughäfen :

Militärflugplatz Dübendorf

Dübendorf, Schweiz

Breite: 47-23-55N, Länge: 8-38-53E, Höhe: 448 m

Beobachtung

Neuester Wetterbericht von vor 34 Minuten, um 22:50 UTC
Wind 4 kt aus Ost, variierte zwischen Nordost und Ost/Südost
Temperatur 3°C
Luftfeuchtigkeit 87%
Luftdruck 1004 hPa
Sichtweite 10 km oder mehr
Aufgelockert bewölkt in der Höhe von 3600 ft
Durchbrochene Bewölkung in der Höhe von 5500 ft
Durchbrochene Bewölkung in der Höhe von 6300 ft
Regenschauer

METAR: LSMD 122250Z AUTO 08004KT 040V120 9999NDV -SHRA SCT036 BKN055 BKN063 03/01 Q1004 RMK

Zeit: 00:24 (23:24 UTC)


TAF: fehlend

Wetterbeobachtungen und Prognosen von mehr als 4000 Flughäfen (METAR und TAF Bericht).

Die verfügbaren Stationen werden durch gelbe und rote Markierungen auf der Karte dargestellt.

Führen Sie die Maus auf sie, um den Namen der Station zu sehen.

Darauf klicken, um die Beobachtung von Wetterbeobachtungen und Prognosen zu sehen.

Um die Karte zu ändern : klicken Sie auf den grünen Tasten mit einem schwarzen Kreuz Zum Vergrößern, auf den grünen Button mit einem Gedankenstrich zu verkleinern, oder auf die grünen Pfeile für benachbarte Karten.


METAR-TAF: